Time;durP1;ratioP1;P1;durP2;ratioP2;P2;SDS_P1;SDS_P2;PMS_P1;PMS_P2;Temp;Humidity;BMP_temperature;BMP_pressure;BME280_temperature;BME280_humidity;BME280_pressure;Samples;Min_cycle;Max_cycle;Signal;HPM_P1;HPM_P2
2022/06/23 00:00:07;;;;;;;15.60;6.53;;;;;;;;;;4989598;28;96808;-73
2022/06/23 00:02:35;;;;;;;16.48;6.70;;;;;;;;;;5004056;28;96347;-75
2022/06/23 00:05:04;;;;;;;12.68;6.57;;;;;;;;;;4990876;28;95615;-73
2022/06/23 00:07:32;;;;;;;16.58;6.90;;;;;;;;;;4994061;28;96899;-74
2022/06/23 00:10:00;;;;;;;12.48;6.55;;;;;;;;;;4995582;28;95239;-74
2022/06/23 00:12:38;;;;;;;16.55;7.07;;;;;;;;;;4990566;28;96837;-75
2022/06/23 00:15:07;;;;;;;13.57;6.80;;;;;;;;;;4994382;28;97354;-75
2022/06/23 00:17:34;;;;;;;18.42;7.07;;;;;;;;;;4999806;28;97050;-74
2022/06/23 00:20:06;;;;;;;13.30;6.65;;;;;;;;;;4987370;28;96839;-73
2022/06/23 00:22:33;;;;;;;11.77;6.63;;;;;;;;;;4994798;28;97259;-74
2022/06/23 00:25:01;;;;;;;13.35;6.72;;;;;;;;;;5010285;28;95672;-74
2022/06/23 00:27:30;;;;;;;13.73;6.57;;;;;;;;;;4993200;28;96768;-73
2022/06/23 00:29:59;;;;;;;13.88;6.80;;;;;;;;;;4987641;28;97219;-73
2022/06/23 00:32:26;;;;;;;16.15;6.68;;;;;;;;;;4970620;28;96675;-74
2022/06/23 00:34:57;;;;;;;16.63;6.40;;;;;;;;;;4999921;28;97273;-74
2022/06/23 00:37:24;;;;;;;14.75;6.60;;;;;;;;;;4990761;28;95228;-73
2022/06/23 00:39:53;;;;;;;15.63;6.63;;;;;;;;;;4989573;28;96474;-74
2022/06/23 00:42:30;;;;;;;14.82;6.35;;;;;;;;;;4990197;28;97124;-73
2022/06/23 00:45:00;;;;;;;11.98;6.78;;;;;;;;;;5006073;28;95582;-73
2022/06/23 00:47:33;;;;;;;10.70;6.60;;;;;;;;;;4998626;28;96889;-73
2022/06/23 00:50:03;;;;;;;19.77;6.80;;;;;;;;;;4989383;28;97322;-73
2022/06/23 00:52:34;;;;;;;15.85;6.72;;;;;;;;;;4993440;28;96295;-74
2022/06/23 00:55:04;;;;;;;12.50;6.90;;;;;;;;;;5000433;28;97443;-74
2022/06/23 00:57:36;;;;;;;12.00;6.70;;;;;;;;;;4993529;28;95476;-74
2022/06/23 01:00:05;;;;;;;12.88;6.82;;;;;;;;;;4981368;28;96607;-74
2022/06/23 01:02:37;;;;;;;17.80;7.43;;;;;;;;;;4969749;28;97478;-74
2022/06/23 01:05:03;;;;;;;;;;;;;;;;;;4996257;28;95504;-74
2022/06/23 01:07:36;;;;;;;11.05;6.43;;;;;;;;;;4988213;28;126866;-74
2022/06/23 01:10:21;;;;;;;15.43;7.20;;;;;;;;;;4985722;28;97019;-74
2022/06/23 01:13:03;;;;;;;17.35;8.05;;;;;;;;;;4992574;28;95700;-74
2022/06/23 01:15:39;;;;;;;13.93;7.32;;;;;;;;;;5007100;28;98978;-75
2022/06/23 01:18:17;;;;;;;18.33;8.20;;;;;;;;;;4989690;28;95617;-74
2022/06/23 01:20:44;;;;;;;15.88;7.05;;;;;;;;;;4984898;28;96449;-74
2022/06/23 01:23:26;;;;;;;12.30;7.10;;;;;;;;;;4972632;28;96352;-74
2022/06/23 01:25:52;;;;;;;14.87;7.83;;;;;;;;;;4990859;28;95599;-74
2022/06/23 01:28:20;;;;;;;18.27;8.30;;;;;;;;;;5009352;28;96562;-73
2022/06/23 01:30:46;;;;;;;12.40;7.88;;;;;;;;;;5010225;28;97305;-72
2022/06/23 01:33:20;;;;;;;12.80;7.85;;;;;;;;;;4998010;28;95763;-72
2022/06/23 01:35:57;;;;;;;18.38;7.45;;;;;;;;;;4999561;28;97622;-72
2022/06/23 01:38:46;;;;;;;14.38;7.80;;;;;;;;;;5012865;28;95520;-75
2022/06/23 01:41:23;;;;;;;14.48;7.68;;;;;;;;;;5007903;28;96709;-72
2022/06/23 01:43:52;;;;;;;15.27;8.00;;;;;;;;;;5003946;28;97298;-73
2022/06/23 01:46:23;;;;;;;18.38;7.28;;;;;;;;;;5003968;28;95965;-73
2022/06/23 01:49:01;;;;;;;15.00;7.72;;;;;;;;;;4992242;28;96920;-73
2022/06/23 01:51:34;;;;;;;13.55;7.43;;;;;;;;;;4992449;28;97322;-74
2022/06/23 01:54:12;;;;;;;14.10;8.35;;;;;;;;;;4997537;28;95423;-74
2022/06/23 01:56:39;;;;;;;14.90;8.10;;;;;;;;;;5004765;28;97159;-74
2022/06/23 01:59:24;;;;;;;18.95;8.48;;;;;;;;;;5014617;28;97338;-73
2022/06/23 02:01:59;;;;;;;19.85;8.90;;;;;;;;;;4999046;28;97075;-74
2022/06/23 02:04:41;;;;;;;17.73;9.93;;;;;;;;;;4976234;28;97281;-74
2022/06/23 02:07:16;;;;;;;19.67;8.43;;;;;;;;;;5003695;28;95457;-74
2022/06/23 02:09:44;;;;;;;20.35;8.93;;;;;;;;;;4992006;28;96770;-73
2022/06/23 02:12:14;;;;;;;16.00;8.95;;;;;;;;;;4991712;28;97573;-75
2022/06/23 02:14:49;;;;;;;19.55;8.75;;;;;;;;;;4990676;28;95332;-74
2022/06/23 02:17:15;;;;;;;14.25;9.50;;;;;;;;;;4990469;28;97689;-73
2022/06/23 02:19:48;;;;;;;17.35;9.38;;;;;;;;;;4992297;28;97612;-75
2022/06/23 02:22:15;;;;;;;16.27;9.07;;;;;;;;;;4995598;28;95631;-73
2022/06/23 02:24:44;;;;;;;14.07;8.82;;;;;;;;;;4988616;28;96041;-74
2022/06/23 02:27:30;;;;;;;17.70;9.80;;;;;;;;;;5011909;28;95306;-74
2022/06/23 02:30:02;;;;;;;18.65;8.95;;;;;;;;;;5005918;28;96869;-74
2022/06/23 02:32:40;;;;;;;19.70;9.50;;;;;;;;;;4991769;28;97399;-74
2022/06/23 02:35:09;;;;;;;17.20;8.95;;;;;;;;;;4991962;28;95310;-74
2022/06/23 02:37:55;;;;;;;16.20;7.68;;;;;;;;;;5011538;28;96991;-74
2022/06/23 02:40:30;;;;;;;20.17;9.77;;;;;;;;;;5011175;28;96560;-75
2022/06/23 02:43:03;;;;;;;14.68;8.95;;;;;;;;;;5000849;28;95578;-75
2022/06/23 02:45:41;;;;;;;20.13;10.18;;;;;;;;;;4992178;28;96811;-74
2022/06/23 02:48:26;;;;;;;26.25;10.20;;;;;;;;;;5011734;28;95711;-74
2022/06/23 02:50:56;;;;;;;15.55;9.32;;;;;;;;;;4995691;28;96851;-74
2022/06/23 02:53:22;;;;;;;21.50;9.68;;;;;;;;;;4996331;28;97257;-75
2022/06/23 02:55:48;;;;;;;22.50;10.10;;;;;;;;;;4988263;28;95753;-74
2022/06/23 02:58:27;;;;;;;18.40;9.23;;;;;;;;;;4990894;28;95847;-74
2022/06/23 03:01:00;;;;;;;18.10;9.68;;;;;;;;;;4991536;28;97653;-73
2022/06/23 03:03:26;;;;;;;18.40;9.57;;;;;;;;;;4998930;28;95701;-74
2022/06/23 03:05:59;;;;;;;15.57;9.50;;;;;;;;;;4983042;28;95789;-73
2022/06/23 03:08:41;;;;;;;19.00;9.88;;;;;;;;;;5010900;28;97104;-73
2022/06/23 03:11:51;;;;;;;21.98;9.88;;;;;;;;;;4991366;28;96721;-73
2022/06/23 03:14:07;;;;;;;17.08;9.85;;;;;;;;;;4985309;28;97120;-73
2022/06/23 03:16:36;;;;;;;17.08;9.82;;;;;;;;;;4990696;28;95448;-73
2022/06/23 03:19:06;;;;;;;16.60;10.02;;;;;;;;;;4991096;28;95591;-73
2022/06/23 03:21:32;;;;;;;15.13;9.80;;;;;;;;;;4989907;28;95451;-73
2022/06/23 03:24:03;;;;;;;17.35;9.73;;;;;;;;;;4995515;28;95548;-73
2022/06/23 03:26:42;;;;;;;16.17;10.45;;;;;;;;;;4992997;28;96801;-73
2022/06/23 03:29:21;;;;;;;22.48;10.30;;;;;;;;;;4993650;28;97303;-72
2022/06/23 03:31:53;;;;;;;19.75;10.23;;;;;;;;;;4991050;28;97270;-74
2022/06/23 03:34:23;;;;;;;18.88;10.10;;;;;;;;;;4997294;28;97519;-74
2022/06/23 03:36:56;;;;;;;21.40;10.40;;;;;;;;;;4982569;28;95424;-74
2022/06/23 03:42:23;;;;;;;20.15;10.27;;;;;;;;;;4986677;28;96411;-74
2022/06/23 03:44:52;;;;;;;17.30;10.43;;;;;;;;;;4988431;28;95488;-74
2022/06/23 03:47:19;;;;;;;19.88;10.75;;;;;;;;;;4990449;28;96745;-74
2022/06/23 03:49:51;;;;;;;20.50;9.68;;;;;;;;;;4989447;28;97111;-73
2022/06/23 03:52:37;;;;;;;16.92;10.00;;;;;;;;;;5003267;28;95764;-75
2022/06/23 20:10:51;;;;;;;16.38;3.80;;;;;;;;;;5032085;27;95352;-75
2022/06/23 20:13:21;;;;;;;12.32;4.20;;;;;;;;;;5014650;27;97810;-74
2022/06/23 20:15:51;;;;;;;17.77;4.25;;;;;;;;;;5008948;27;96054;-76
2022/06/23 20:18:23;;;;;;;11.82;4.45;;;;;;;;;;5032616;27;96835;-76
2022/06/23 20:20:55;;;;;;;19.85;4.78;;;;;;;;;;5024678;27;97280;-75
2022/06/23 20:23:21;;;;;;;;;;;;;;;;;;5024188;27;95851;-74
2022/06/23 20:25:51;;;;;;;14.30;4.45;;;;;;;;;;5021159;27;126545;-76
2022/06/23 20:28:36;;;;;;;17.33;4.70;;;;;;;;;;5023850;27;95775;-77
2022/06/23 20:31:20;;;;;;;12.05;4.50;;;;;;;;;;5028745;27;96192;-75
2022/06/23 20:34:24;;;;;;;13.25;4.55;;;;;;;;;;5037864;27;97713;-75
2022/06/23 20:36:51;;;;;;;11.25;4.03;;;;;;;;;;4987344;28;95428;-75
2022/06/23 20:39:36;;;;;;;8.55;4.22;;;;;;;;;;4987269;28;96841;-74
2022/06/23 20:42:02;;;;;;;13.68;4.88;;;;;;;;;;5005583;27;97088;-72
2022/06/23 20:44:29;;;;;;;15.32;4.55;;;;;;;;;;5018836;27;96041;-73
2022/06/23 20:46:58;;;;;;;13.68;4.85;;;;;;;;;;5020931;27;97102;-73
2022/06/23 20:49:32;;;;;;;16.15;5.53;;;;;;;;;;5027681;27;97397;-73
2022/06/23 20:52:01;;;;;;;11.98;5.22;;;;;;;;;;5031755;27;95487;-73
2022/06/23 20:54:34;;;;;;;12.10;5.00;;;;;;;;;;5032007;27;96788;-72
2022/06/23 20:57:15;;;;;;;14.00;5.47;;;;;;;;;;5024588;27;95417;-75
2022/06/23 20:59:49;;;;;;;18.37;5.50;;;;;;;;;;5029229;27;95783;-73
2022/06/23 21:02:21;;;;;;;16.00;6.50;;;;;;;;;;5038395;27;97631;-72
2022/06/23 21:04:51;;;;;;;10.48;5.82;;;;;;;;;;5018685;27;95328;-72
2022/06/23 21:07:33;;;;;;;14.25;5.63;;;;;;;;;;5035101;27;96716;-72
2022/06/23 21:10:12;;;;;;;13.18;6.45;;;;;;;;;;5034557;27;97508;-73
2022/06/23 21:12:52;;;;;;;14.35;8.32;;;;;;;;;;5025903;27;96073;-72
2022/06/23 21:15:33;;;;;;;13.83;7.87;;;;;;;;;;5024059;27;97292;-73
2022/06/23 21:18:22;;;;;;;19.02;8.38;;;;;;;;;;5041570;27;98644;-72
2022/06/23 21:20:51;;;;;;;14.02;7.70;;;;;;;;;;5028060;27;97263;-73
2022/06/23 21:23:38;;;;;;;20.15;8.02;;;;;;;;;;5010858;28;96330;-74
2022/06/23 21:26:06;;;;;;;;;;;;;;;;;;5001815;28;95860;-72
2022/06/23 21:29:03;;;;;;;22.25;10.00;;;;;;;;;;5021014;28;127207;-74
2022/06/23 21:31:36;;;;;;;18.80;9.90;;;;;;;;;;4962535;28;97502;-73
2022/06/23 21:34:06;;;;;;;22.80;10.93;;;;;;;;;;5017238;28;95376;-72
2022/06/23 21:36:38;;;;;;;20.77;11.45;;;;;;;;;;5013070;28;96061;-74
2022/06/23 21:39:07;;;;;;;22.42;11.02;;;;;;;;;;5019042;28;95891;-74
2022/06/23 21:41:40;;;;;;;18.98;10.48;;;;;;;;;;5027571;28;95326;-74
2022/06/23 21:44:11;;;;;;;17.77;10.15;;;;;;;;;;5006317;28;97570;-73
2022/06/23 21:46:37;;;;;;;15.13;10.50;;;;;;;;;;5006346;28;95933;-74
2022/06/23 21:49:19;;;;;;;22.58;10.18;;;;;;;;;;5008692;28;96955;-73
2022/06/23 21:51:47;;;;;;;19.67;11.48;;;;;;;;;;5010912;28;97042;-72
2022/06/23 21:54:26;;;;;;;22.13;11.77;;;;;;;;;;5015553;28;95556;-73
2022/06/23 21:56:55;;;;;;;20.33;12.77;;;;;;;;;;5014984;28;97432;-73
2022/06/23 21:59:22;;;;;;;22.80;14.48;;;;;;;;;;5012641;28;97148;-72
2022/06/23 22:02:08;;;;;;;22.67;15.32;;;;;;;;;;5013016;28;95428;-73
2022/06/23 22:04:47;;;;;;;31.67;16.45;;;;;;;;;;5022786;28;96502;-72
2022/06/23 22:07:37;;;;;;;28.05;19.00;;;;;;;;;;5001302;28;96705;-73
2022/06/23 22:10:05;;;;;;;28.42;19.60;;;;;;;;;;5015962;28;97127;-72
2022/06/23 22:12:33;;;;;;;27.08;20.58;;;;;;;;;;5023216;28;97467;-72
2022/06/23 22:15:04;;;;;;;33.28;21.92;;;;;;;;;;5004740;28;96477;-72
2022/06/23 22:17:32;;;;;;;31.83;21.67;;;;;;;;;;5024703;28;97422;-72
2022/06/23 22:20:01;;;;;;;29.60;21.33;;;;;;;;;;5014905;28;97797;-72
2022/06/23 22:22:32;;;;;;;31.15;20.80;;;;;;;;;;5017827;28;96091;-73
2022/06/23 22:27:49;;;;;;;30.38;20.65;;;;;;;;;;5005401;28;95345;-73
2022/06/23 22:30:21;;;;;;;33.25;23.42;;;;;;;;;;5012684;28;96049;-73
2022/06/23 22:32:55;;;;;;;37.17;25.42;;;;;;;;;;5019313;27;96446;-73
2022/06/23 22:35:27;;;;;;;33.45;24.13;;;;;;;;;;4994119;28;96875;-76
2022/06/23 22:37:53;;;;;;;43.60;26.40;;;;;;;;;;5011039;28;96733;-73
2022/06/23 22:40:21;;;;;;;48.10;27.42;;;;;;;;;;5001187;28;97753;-73
2022/06/23 22:42:57;;;;;;;42.00;27.98;;;;;;;;;;5019539;28;95437;-74
2022/06/23 22:45:47;;;;;;;41.50;29.52;;;;;;;;;;5013372;28;96937;-73
2022/06/23 22:48:25;;;;;;;45.83;27.88;;;;;;;;;;4993325;28;97099;-73
2022/06/23 22:50:52;;;;;;;41.20;28.48;;;;;;;;;;5009649;28;97309;-74
2022/06/23 22:53:25;;;;;;;42.67;29.88;;;;;;;;;;5011578;28;97655;-74
2022/06/23 22:55:53;;;;;;;39.20;29.38;;;;;;;;;;5008285;28;95296;-74
2022/06/23 22:58:35;;;;;;;46.58;27.85;;;;;;;;;;5002130;28;96396;-73
2022/06/23 23:01:12;;;;;;;41.75;27.63;;;;;;;;;;5003790;28;97341;-74
2022/06/23 23:03:41;;;;;;;43.35;26.15;;;;;;;;;;5028695;28;95507;-73
2022/06/23 23:06:23;;;;;;;38.78;27.50;;;;;;;;;;5012060;28;96533;-73
2022/06/23 23:08:52;;;;;;;41.63;26.92;;;;;;;;;;5007494;28;97594;-73
2022/06/23 23:11:24;;;;;;;39.10;27.08;;;;;;;;;;4996958;28;95941;-76
2022/06/23 23:13:52;;;;;;;38.58;26.98;;;;;;;;;;5003150;28;97464;-74
2022/06/23 23:16:24;;;;;;;38.85;26.50;;;;;;;;;;5010164;28;95817;-75
2022/06/23 23:18:55;;;;;;;34.08;20.85;;;;;;;;;;5009261;28;96745;-75
2022/06/23 23:21:25;;;;;;;33.75;22.52;;;;;;;;;;5008966;28;98007;-75
2022/06/23 23:23:56;;;;;;;30.27;21.60;;;;;;;;;;5008727;28;95494;-75
2022/06/23 23:26:26;;;;;;;31.92;22.30;;;;;;;;;;5008768;28;97259;-74
2022/06/23 23:28:54;;;;;;;38.45;24.25;;;;;;;;;;5021342;28;97360;-75
2022/06/23 23:31:21;;;;;;;33.13;23.65;;;;;;;;;;5011207;28;95321;-75
2022/06/23 23:33:53;;;;;;;38.30;25.20;;;;;;;;;;5010789;28;97498;-74
2022/06/23 23:36:20;;;;;;;39.10;23.83;;;;;;;;;;5004277;28;96792;-74
2022/06/23 23:38:51;;;;;;;35.78;26.23;;;;;;;;;;5005017;28;97367;-74
2022/06/23 23:41:21;;;;;;;38.63;25.50;;;;;;;;;;5012681;28;98005;-74
2022/06/23 23:43:48;;;;;;;35.97;24.90;;;;;;;;;;5010627;28;95290;-73
2022/06/23 23:46:19;;;;;;;39.65;27.55;;;;;;;;;;5007858;28;97133;-73
2022/06/23 23:48:47;;;;;;;41.22;27.90;;;;;;;;;;5025034;28;96819;-74
2022/06/23 23:51:14;;;;;;;39.70;26.85;;;;;;;;;;5012485;28;96752;-72
2022/06/23 23:53:43;;;;;;;41.03;28.13;;;;;;;;;;5013119;28;96571;-75
2022/06/23 23:56:10;;;;;;;38.47;27.25;;;;;;;;;;5011886;28;97246;-73
2022/06/23 23:58:40;;;;;;;36.70;25.98;;;;;;;;;;5008482;28;96500;-74
